sensor_id;sensor_type;location;lat;lon;timestamp;pressure;altitude;pressure_sealevel;temperature;humidity
15229;BME280;7717;47.792;12.076;2023-03-25T00:00:57;95729.81;;;7.33;100.00
15229;BME280;7717;47.792;12.076;2023-03-25T00:03:30;95734.91;;;7.19;100.00
15229;BME280;7717;47.792;12.076;2023-03-25T00:06:00;95723.84;;;7.14;100.00
15229;BME280;7717;47.792;12.076;2023-03-25T00:08:25;95728.13;;;7.29;100.00
15229;BME280;7717;47.792;12.076;2023-03-25T00:10:56;95746.78;;;7.37;100.00
15229;BME280;7717;47.792;12.076;2023-03-25T00:13:22;95754.41;;;7.25;100.00
15229;BME280;7717;47.792;12.076;2023-03-25T00:15:49;95747.63;;;7.30;100.00
15229;BME280;7717;47.792;12.076;2023-03-25T00:18:19;95741.69;;;7.23;100.00
15229;BME280;7717;47.792;12.076;2023-03-25T00:20:45;95739.13;;;7.11;100.00
15229;BME280;7717;47.792;12.076;2023-03-25T00:23:14;95737.41;;;6.96;100.00
15229;BME280;7717;47.792;12.076;2023-03-25T00:25:40;95728.91;;;6.97;100.00
15229;BME280;7717;47.792;12.076;2023-03-25T00:28:10;95735.63;;;6.73;100.00
15229;BME280;7717;47.792;12.076;2023-03-25T00:30:37;95728.88;;;6.78;100.00
15229;BME280;7717;47.792;12.076;2023-03-25T00:33:03;95737.34;;;6.71;100.00
15229;BME280;7717;47.792;12.076;2023-03-25T00:35:28;95738.09;;;6.47;100.00
15229;BME280;7717;47.792;12.076;2023-03-25T00:37:54;95728.69;;;6.26;100.00
15229;BME280;7717;47.792;12.076;2023-03-25T00:40:28;95743.19;;;6.53;100.00
15229;BME280;7717;47.792;12.076;2023-03-25T00:42:55;95732.13;;;6.40;100.00
15229;BME280;7717;47.792;12.076;2023-03-25T00:45:20;95732.94;;;6.27;100.00
15229;BME280;7717;47.792;12.076;2023-03-25T00:47:46;95736.28;;;6.21;100.00
15229;BME280;7717;47.792;12.076;2023-03-25T00:50:11;95729.53;;;6.29;100.00
15229;BME280;7717;47.792;12.076;2023-03-25T00:52:37;95735.44;;;6.21;100.00
15229;BME280;7717;47.792;12.076;2023-03-25T00:55:03;95732.97;;;6.32;100.00
15229;BME280;7717;47.792;12.076;2023-03-25T00:57:29;95726.97;;;6.28;100.00
15229;BME280;7717;47.792;12.076;2023-03-25T00:59:54;95724.34;;;6.09;100.00
15229;BME280;7717;47.792;12.076;2023-03-25T01:02:20;95718.28;;;5.89;100.00
15229;BME280;7717;47.792;12.076;2023-03-25T01:04:46;95718.22;;;5.80;100.00
15229;BME280;7717;47.792;12.076;2023-03-25T01:07:18;95714.78;;;5.73;100.00
15229;BME280;7717;47.792;12.076;2023-03-25T01:09:47;95723.22;;;5.67;100.00
15229;BME280;7717;47.792;12.076;2023-03-25T01:12:14;95719.81;;;5.62;100.00
15229;BME280;7717;47.792;12.076;2023-03-25T01:14:40;95702.78;;;5.46;100.00
15229;BME280;7717;47.792;12.076;2023-03-25T01:17:06;95711.16;;;5.35;100.00
15229;BME280;7717;47.792;12.076;2023-03-25T01:19:33;95712.75;;;5.24;100.00
15229;BME280;7717;47.792;12.076;2023-03-25T01:21:58;95711.88;;;5.19;100.00
15229;BME280;7717;47.792;12.076;2023-03-25T01:24:24;95711.84;;;5.17;100.00
15229;BME280;7717;47.792;12.076;2023-03-25T01:26:49;95705.09;;;5.18;100.00
15229;BME280;7717;47.792;12.076;2023-03-25T01:29:16;95716.06;;;5.18;100.00
15229;BME280;7717;47.792;12.076;2023-03-25T01:31:43;95692.97;;;4.89;100.00
15229;BME280;7717;47.792;12.076;2023-03-25T01:34:08;95709.09;;;4.94;100.00
15229;BME280;7717;47.792;12.076;2023-03-25T01:36:34;95704.06;;;4.97;100.00
15229;BME280;7717;47.792;12.076;2023-03-25T01:39:05;95697.56;;;5.27;100.00
15229;BME280;7717;47.792;12.076;2023-03-25T01:41:33;95705.88;;;5.14;100.00
15229;BME280;7717;47.792;12.076;2023-03-25T01:46:38;95696.72;;;5.30;100.00
15229;BME280;7717;47.792;12.076;2023-03-25T01:49:13;95681.53;;;5.34;100.00
15229;BME280;7717;47.792;12.076;2023-03-25T01:51:42;95684.75;;;5.15;100.00
15229;BME280;7717;47.792;12.076;2023-03-25T01:54:11;95690.88;;;5.41;100.00
15229;BME280;7717;47.792;12.076;2023-03-25T01:56:39;95682.38;;;5.35;100.00
15229;BME280;7717;47.792;12.076;2023-03-25T01:59:07;95687.69;;;5.64;100.00
15229;BME280;7717;47.792;12.076;2023-03-25T02:01:35;95678.31;;;5.57;100.00
15229;BME280;7717;47.792;12.076;2023-03-25T02:04:02;95675.72;;;5.51;100.00
15229;BME280;7717;47.792;12.076;2023-03-25T02:06:45;95669.00;;;5.59;100.00
15229;BME280;7717;47.792;12.076;2023-03-25T02:09:16;95673.31;;;5.71;100.00
15229;BME280;7717;47.792;12.076;2023-03-25T02:11:42;95686.91;;;5.82;100.00
15229;BME280;7717;47.792;12.076;2023-03-25T02:14:17;95685.22;;;5.84;100.00
15229;BME280;7717;47.792;12.076;2023-03-25T02:37:03;95669.00;;;5.61;100.00
15229;BME280;7717;47.792;12.076;2023-03-25T02:40:05;95674.06;;;5.56;100.00
15229;BME280;7717;47.792;12.076;2023-03-25T02:42:45;95687.50;;;5.39;100.00
15229;BME280;7717;47.792;12.076;2023-03-25T02:45:25;95684.19;;;5.53;100.00
15229;BME280;7717;47.792;12.076;2023-03-25T02:47:57;95697.97;;;5.89;100.00
15229;BME280;7717;47.792;12.076;2023-03-25T02:50:47;95690.34;;;5.92;100.00
15229;BME280;7717;47.792;12.076;2023-03-25T02:53:20;95700.50;;;5.92;100.00
15229;BME280;7717;47.792;12.076;2023-03-25T02:55:49;95699.81;;;6.10;100.00
15229;BME280;7717;47.792;12.076;2023-03-25T02:58:18;95699.88;;;6.24;100.00
15229;BME280;7717;47.792;12.076;2023-03-25T03:00:47;95682.13;;;6.36;100.00
15229;BME280;7717;47.792;12.076;2023-03-25T03:03:13;95698.25;;;6.41;100.00
15229;BME280;7717;47.792;12.076;2023-03-25T03:05:43;95686.38;;;6.39;100.00
15229;BME280;7717;47.792;12.076;2023-03-25T03:11:28;95678.03;;;7.01;100.00
15229;BME280;7717;47.792;12.076;2023-03-25T03:19:51;95660.19;;;7.68;100.00
15229;BME280;7717;47.792;12.076;2023-03-25T03:22:41;95672.94;;;7.60;100.00
15229;BME280;7717;47.792;12.076;2023-03-25T03:30:28;95666.09;;;7.82;100.00
15229;BME280;7717;47.792;12.076;2023-03-25T03:33:29;95670.31;;;8.08;100.00
15229;BME280;7717;47.792;12.076;2023-03-25T03:36:03;95663.44;;;8.21;100.00
15229;BME280;7717;47.792;12.076;2023-03-25T03:38:35;95676.97;;;8.37;100.00
15229;BME280;7717;47.792;12.076;2023-03-25T03:41:09;95672.69;;;8.42;100.00
15229;BME280;7717;47.792;12.076;2023-03-25T03:46:16;95677.03;;;8.17;100.00
15229;BME280;7717;47.792;12.076;2023-03-25T03:48:53;95675.44;;;7.92;100.00
15229;BME280;7717;47.792;12.076;2023-03-25T03:51:31;95683.91;;;8.02;100.00
15229;BME280;7717;47.792;12.076;2023-03-25T03:54:08;95694.09;;;7.96;100.00
15229;BME280;7717;47.792;12.076;2023-03-25T03:56:58;95682.03;;;8.55;100.00
15229;BME280;7717;47.792;12.076;2023-03-25T04:02:15;95688.88;;;8.36;100.00
15229;BME280;7717;47.792;12.076;2023-03-25T04:04:47;95688.94;;;8.25;100.00
15229;BME280;7717;47.792;12.076;2023-03-25T04:07:18;95697.47;;;8.06;100.00
15229;BME280;7717;47.792;12.076;2023-03-25T04:09:53;95694.81;;;8.40;100.00
15229;BME280;7717;47.792;12.076;2023-03-25T04:12:26;95707.56;;;8.41;100.00
15229;BME280;7717;47.792;12.076;2023-03-25T04:14:58;95704.09;;;8.61;100.00
15229;BME280;7717;47.792;12.076;2023-03-25T04:17:25;95704.03;;;8.72;100.00
15229;BME280;7717;47.792;12.076;2023-03-25T04:19:54;95692.94;;;8.85;100.00
15229;BME280;7717;47.792;12.076;2023-03-25T04:22:20;95688.56;;;9.03;100.00
15229;BME280;7717;47.792;12.076;2023-03-25T04:24:46;95688.66;;;8.87;100.00
15229;BME280;7717;47.792;12.076;2023-03-25T04:27:15;95680.09;;;8.96;100.00
15229;BME280;7717;47.792;12.076;2023-03-25T04:29:41;95671.47;;;9.11;100.00
15229;BME280;7717;47.792;12.076;2023-03-25T04:32:10;95660.53;;;8.93;100.00
15229;BME280;7717;47.792;12.076;2023-03-25T04:34:36;95664.63;;;9.17;100.00
15229;BME280;7717;47.792;12.076;2023-03-25T04:37:01;95646.59;;;9.34;100.00
15229;BME280;7717;47.792;12.076;2023-03-25T04:39:27;95638.22;;;9.17;100.00
15229;BME280;7717;47.792;12.076;2023-03-25T04:41:56;95639.63;;;9.55;100.00
15229;BME280;7717;47.792;12.076;2023-03-25T04:44:26;95652.59;;;9.33;100.00
15229;BME280;7717;47.792;12.076;2023-03-25T04:46:53;95666.41;;;9.06;100.00
15229;BME280;7717;47.792;12.076;2023-03-25T04:49:21;95656.09;;;9.17;100.00
15229;BME280;7717;47.792;12.076;2023-03-25T04:51:48;95633.25;;;9.01;100.00
15229;BME280;7717;47.792;12.076;2023-03-25T04:54:20;95654.31;;;9.30;100.00
15229;BME280;7717;47.792;12.076;2023-03-25T04:56:46;95662.81;;;9.30;100.00
15229;BME280;7717;47.792;12.076;2023-03-25T04:59:14;95646.59;;;9.34;100.00
15229;BME280;7717;47.792;12.076;2023-03-25T05:01:40;95648.25;;;9.42;100.00
15229;BME280;7717;47.792;12.076;2023-03-25T05:04:08;95665.34;;;9.35;100.00
15229;BME280;7717;47.792;12.076;2023-03-25T05:06:37;95619.31;;;9.43;97.84
15229;BME280;7717;47.792;12.076;2023-03-25T05:09:04;95622.56;;;9.57;95.83
15229;BME280;7717;47.792;12.076;2023-03-25T05:11:32;95613.25;;;9.50;95.09
15229;BME280;7717;47.792;12.076;2023-03-25T05:13:57;95622.91;;;9.20;96.20
15229;BME280;7717;47.792;12.076;2023-03-25T05:16:23;95607.38;;;9.42;94.60
15229;BME280;7717;47.792;12.076;2023-03-25T05:18:48;95628.81;;;9.28;95.00
15229;BME280;7717;47.792;12.076;2023-03-25T05:21:14;95594.72;;;9.31;93.77
15229;BME280;7717;47.792;12.076;2023-03-25T05:23:40;95617.75;;;9.25;95.26
15229;BME280;7717;47.792;12.076;2023-03-25T05:26:06;95627.75;;;9.48;94.68
15229;BME280;7717;47.792;12.076;2023-03-25T05:28:32;95660.28;;;9.30;98.39
15229;BME280;7717;47.792;12.076;2023-03-25T05:30:57;95649.41;;;9.07;99.24
15229;BME280;7717;47.792;12.076;2023-03-25T05:33:23;95652.91;;;8.87;100.00
15229;BME280;7717;47.792;12.076;2023-03-25T05:35:48;95653.78;;;8.89;100.00
15229;BME280;7717;47.792;12.076;2023-03-25T05:38:15;95678.41;;;8.93;100.00
15229;BME280;7717;47.792;12.076;2023-03-25T05:40:46;95684.50;;;8.69;100.00
15229;BME280;7717;47.792;12.076;2023-03-25T05:43:13;95683.66;;;8.69;100.00
15229;BME280;7717;47.792;12.076;2023-03-25T05:45:42;95701.63;;;8.41;100.00
15229;BME280;7717;47.792;12.076;2023-03-25T05:48:09;95688.75;;;8.69;100.00
15229;BME280;7717;47.792;12.076;2023-03-25T05:50:36;95698.94;;;8.73;100.00
15229;BME280;7717;47.792;12.076;2023-03-25T05:53:02;95696.53;;;8.41;100.00
15229;BME280;7717;47.792;12.076;2023-03-25T05:55:29;95709.31;;;8.25;100.00
15229;BME280;7717;47.792;12.076;2023-03-25T05:57:54;95697.31;;;8.63;100.00
15229;BME280;7717;47.792;12.076;2023-03-25T06:00:21;95698.97;;;8.65;100.00
15229;BME280;7717;47.792;12.076;2023-03-25T06:02:47;95689.50;;;8.89;100.00
15229;BME280;7717;47.792;12.076;2023-03-25T06:05:15;95691.88;;;9.14;100.00
15229;BME280;7717;47.792;12.076;2023-03-25T06:07:42;95659.47;;;9.27;98.46
15229;BME280;7717;47.792;12.076;2023-03-25T06:10:09;95668.44;;;9.69;97.12
15229;BME280;7717;47.792;12.076;2023-03-25T06:12:35;95621.31;;;9.94;92.21
15229;BME280;7717;47.792;12.076;2023-03-25T06:15:14;95635.69;;;10.05;91.87
15229;BME280;7717;47.792;12.076;2023-03-25T06:17:42;95640.88;;;9.99;91.87
15229;BME280;7717;47.792;12.076;2023-03-25T06:20:12;95660.38;;;10.08;92.42
15229;BME280;7717;47.792;12.076;2023-03-25T06:22:44;95672.38;;;10.01;93.61
15229;BME280;7717;47.792;12.076;2023-03-25T06:25:12;95689.53;;;9.90;93.79
15229;BME280;7717;47.792;12.076;2023-03-25T06:27:37;95675.75;;;10.05;92.85
15229;BME280;7717;47.792;12.076;2023-03-25T06:30:08;95685.97;;;10.06;93.08
15229;BME280;7717;47.792;12.076;2023-03-25T06:32:35;95677.41;;;10.09;92.35
15229;BME280;7717;47.792;12.076;2023-03-25T06:35:00;95663.66;;;10.19;94.32
15229;BME280;7717;47.792;12.076;2023-03-25T06:37:26;95652.22;;;10.50;90.45
15229;BME280;7717;47.792;12.076;2023-03-25T06:39:52;95640.22;;;10.55;89.14
15229;BME280;7717;47.792;12.076;2023-03-25T06:42:24;95616.91;;;10.75;85.91
15229;BME280;7717;47.792;12.076;2023-03-25T06:44:50;95602.22;;;10.88;84.83
15229;BME280;7717;47.792;12.076;2023-03-25T06:47:15;95667.00;;;10.93;87.38
15229;BME280;7717;47.792;12.076;2023-03-25T06:49:41;95659.59;;;10.74;85.50
15229;BME280;7717;47.792;12.076;2023-03-25T06:52:06;95664.16;;;10.51;84.80
15229;BME280;7717;47.792;12.076;2023-03-25T06:54:32;95671.91;;;10.46;84.29
15229;BME280;7717;47.792;12.076;2023-03-25T06:56:57;95653.97;;;10.48;83.58
15229;BME280;7717;47.792;12.076;2023-03-25T06:59:24;95653.13;;;10.47;83.05
15229;BME280;7717;47.792;12.076;2023-03-25T07:01:49;95697.88;;;10.84;85.00
15229;BME280;7717;47.792;12.076;2023-03-25T07:04:15;95685.19;;;10.73;82.63
15229;BME280;7717;47.792;12.076;2023-03-25T07:06:40;95735.97;;;10.35;85.05
15229;BME280;7717;47.792;12.076;2023-03-25T07:09:06;95803.44;;;10.22;89.80
15229;BME280;7717;47.792;12.076;2023-03-25T07:11:32;95782.38;;;9.92;88.89
15229;BME280;7717;47.792;12.076;2023-03-25T07:13:58;95725.19;;;10.05;87.04
15229;BME280;7717;47.792;12.076;2023-03-25T07:16:23;95748.44;;;10.65;87.45
15229;BME280;7717;47.792;12.076;2023-03-25T07:18:50;95724.19;;;10.93;84.88
15229;BME280;7717;47.792;12.076;2023-03-25T07:21:16;95690.03;;;11.52;83.09
15229;BME280;7717;47.792;12.076;2023-03-25T07:23:41;95676.34;;;11.51;82.69
15229;BME280;7717;47.792;12.076;2023-03-25T07:26:07;95645.69;;;10.92;79.57
15229;BME280;7717;47.792;12.076;2023-03-25T07:28:32;95648.09;;;11.00;79.82
15229;BME280;7717;47.792;12.076;2023-03-25T07:30:58;95625.28;;;10.88;79.08
15229;BME280;7717;47.792;12.076;2023-03-25T07:33:23;95655.44;;;11.23;81.47
15229;BME280;7717;47.792;12.076;2023-03-25T07:35:52;95657.66;;;10.89;80.21
15229;BME280;7717;47.792;12.076;2023-03-25T07:38:17;95670.50;;;10.87;81.33
15229;BME280;7717;47.792;12.076;2023-03-25T07:40:42;95623.28;;;11.07;79.52
15229;BME280;7717;47.792;12.076;2023-03-25T07:43:08;95645.09;;;11.29;79.52
15229;BME280;7717;47.792;12.076;2023-03-25T07:45:33;95691.81;;;11.45;82.29
15229;BME280;7717;47.792;12.076;2023-03-25T07:48:00;95621.03;;;11.40;78.00
15229;BME280;7717;47.792;12.076;2023-03-25T07:50:25;95626.16;;;11.40;78.16
15229;BME280;7717;47.792;12.076;2023-03-25T07:52:51;95675.38;;;11.59;80.34
15229;BME280;7717;47.792;12.076;2023-03-25T07:55:16;95631.34;;;11.37;77.22
15229;BME280;7717;47.792;12.076;2023-03-25T07:57:42;95658.56;;;11.41;78.42
15229;BME280;7717;47.792;12.076;2023-03-25T08:00:09;95622.13;;;11.25;76.17
15229;BME280;7717;47.792;12.076;2023-03-25T08:02:35;95655.06;;;11.46;78.63
15229;BME280;7717;47.792;12.076;2023-03-25T08:05:01;95638.06;;;11.41;77.38
15229;BME280;7717;47.792;12.076;2023-03-25T08:07:27;95644.91;;;11.42;76.93
15229;BME280;7717;47.792;12.076;2023-03-25T08:09:53;95692.81;;;11.37;79.93
15229;BME280;7717;47.792;12.076;2023-03-25T08:12:18;95648.56;;;11.28;76.13
15229;BME280;7717;47.792;12.076;2023-03-25T08:14:44;95659.72;;;11.23;76.36
15229;BME280;7717;47.792;12.076;2023-03-25T08:17:09;95664.91;;;11.20;77.02
15229;BME280;7717;47.792;12.076;2023-03-25T08:19:35;95683.06;;;11.59;78.68
15229;BME280;7717;47.792;12.076;2023-03-25T08:22:01;95654.00;;;11.60;77.01
15229;BME280;7717;47.792;12.076;2023-03-25T08:24:27;95691.66;;;12.07;80.33
15229;BME280;7717;47.792;12.076;2023-03-25T08:26:54;95623.19;;;12.11;76.45
15229;BME280;7717;47.792;12.076;2023-03-25T08:29:20;95662.75;;;12.43;77.34
15229;BME280;7717;47.792;12.076;2023-03-25T08:31:46;95696.59;;;12.60;79.38
15229;BME280;7717;47.792;12.076;2023-03-25T08:34:17;95632.19;;;12.31;75.42
15229;BME280;7717;47.792;12.076;2023-03-25T08:36:42;95628.59;;;12.39;75.70
15229;BME280;7717;47.792;12.076;2023-03-25T08:39:08;95673.19;;;12.76;78.25
15229;BME280;7717;47.792;12.076;2023-03-25T08:41:36;95663.53;;;13.25;77.42
15229;BME280;7717;47.792;12.076;2023-03-25T08:44:03;95621.63;;;13.57;75.51
15229;BME280;7717;47.792;12.076;2023-03-25T08:46:29;95656.91;;;13.14;75.07
15229;BME280;7717;47.792;12.076;2023-03-25T08:48:55;95669.25;;;14.07;76.83
15229;BME280;7717;47.792;12.076;2023-03-25T08:51:21;95668.84;;;13.17;75.66
15229;BME280;7717;47.792;12.076;2023-03-25T08:53:46;95846.81;;;11.80;85.12
15229;BME280;7717;47.792;12.076;2023-03-25T08:56:11;95856.94;;;11.26;88.70
15229;BME280;7717;47.792;12.076;2023-03-25T08:58:38;95836.25;;;10.71;93.75
15229;BME280;7717;47.792;12.076;2023-03-25T09:01:04;95821.25;;;10.34;95.90
15229;BME280;7717;47.792;12.076;2023-03-25T09:03:31;95785.13;;;12.86;92.21
15229;BME280;7717;47.792;12.076;2023-03-25T09:05:56;95759.75;;;13.52;87.67
15229;BME280;7717;47.792;12.076;2023-03-25T09:08:22;95685.91;;;13.57;83.06
15229;BME280;7717;47.792;12.076;2023-03-25T09:10:47;95663.59;;;15.95;81.05
15229;BME280;7717;47.792;12.076;2023-03-25T09:13:13;95659.44;;;15.37;78.69
15229;BME280;7717;47.792;12.076;2023-03-25T09:15:38;95660.41;;;16.37;79.34
15229;BME280;7717;47.792;12.076;2023-03-25T09:18:04;95625.31;;;17.86;76.51
15229;BME280;7717;47.792;12.076;2023-03-25T09:20:30;95628.97;;;16.49;75.30
15229;BME280;7717;47.792;12.076;2023-03-25T09:22:55;95588.00;;;16.16;72.19
15229;BME280;7717;47.792;12.076;2023-03-25T09:25:21;95619.50;;;15.76;73.95
15229;BME280;7717;47.792;12.076;2023-03-25T09:27:46;95613.38;;;16.29;72.88
15229;BME280;7717;47.792;12.076;2023-03-25T09:30:12;95601.84;;;15.63;72.11
15229;BME280;7717;47.792;12.076;2023-03-25T09:32:37;95677.56;;;16.87;75.62
15229;BME280;7717;47.792;12.076;2023-03-25T09:35:03;95671.28;;;16.94;76.39
15229;BME280;7717;47.792;12.076;2023-03-25T09:37:29;95616.59;;;14.78;72.35
15229;BME280;7717;47.792;12.076;2023-03-25T09:39:55;95628.03;;;14.69;72.68
15229;BME280;7717;47.792;12.076;2023-03-25T09:45:24;95510.19;;;16.26;66.27
15229;BME280;7717;47.792;12.076;2023-03-25T09:50:17;95543.75;;;16.26;67.79
15229;BME280;7717;47.792;12.076;2023-03-25T09:52:54;95495.16;;;16.58;65.33
15229;BME280;7717;47.792;12.076;2023-03-25T09:55:30;95489.75;;;18.08;65.98
15229;BME280;7717;47.792;12.076;2023-03-25T10:03:46;95490.59;;;16.64;64.19
15229;BME280;7717;47.792;12.076;2023-03-25T10:06:14;95415.44;;;18.10;61.59
15229;BME280;7717;47.792;12.076;2023-03-25T10:12:03;95487.97;;;15.98;62.95
15229;BME280;7717;47.792;12.076;2023-03-25T10:14:42;95475.28;;;16.37;63.21
15229;BME280;7717;47.792;12.076;2023-03-25T10:17:24;95491.84;;;16.98;62.65
15229;BME280;7717;47.792;12.076;2023-03-25T10:20:05;95462.34;;;16.82;61.51
15229;BME280;7717;47.792;12.076;2023-03-25T10:25:34;95500.25;;;18.79;64.31
15229;BME280;7717;47.792;12.076;2023-03-25T10:28:04;95432.41;;;19.06;61.82
15229;BME280;7717;47.792;12.076;2023-03-25T10:30:37;95520.69;;;16.21;64.35
15229;BME280;7717;47.792;12.076;2023-03-25T10:33:15;95437.81;;;19.19;60.01
15229;BME280;7717;47.792;12.076;2023-03-25T10:35:44;95444.34;;;18.01;60.37
15229;BME280;7717;47.792;12.076;2023-03-25T10:38:15;95564.31;;;16.05;66.43
15229;BME280;7717;47.792;12.076;2023-03-25T10:40:45;95619.00;;;16.86;69.66
15229;BME280;7717;47.792;12.076;2023-03-25T10:43:23;95554.66;;;17.22;66.33
15229;BME280;7717;47.792;12.076;2023-03-25T10:45:54;95465.53;;;17.30;60.93
15229;BME280;7717;47.792;12.076;2023-03-25T10:48:27;95497.69;;;16.81;62.76
15229;BME280;7717;47.792;12.076;2023-03-25T10:51:09;95538.34;;;15.59;63.41
15229;BME280;7717;47.792;12.076;2023-03-25T10:53:36;95524.81;;;15.78;63.58
15229;BME280;7717;47.792;12.076;2023-03-25T10:56:13;95546.59;;;17.08;65.02
15229;BME280;7717;47.792;12.076;2023-03-25T10:58:43;95491.19;;;18.51;64.06
15229;BME280;7717;47.792;12.076;2023-03-25T11:01:15;95437.34;;;18.03;60.10
15229;BME280;7717;47.792;12.076;2023-03-25T11:03:42;95399.06;;;19.99;58.09
15229;BME280;7717;47.792;12.076;2023-03-25T11:06:38;95438.06;;;18.97;59.69
15229;BME280;7717;47.792;12.076;2023-03-25T11:09:23;95356.59;;;18.66;56.67
15229;BME280;7717;47.792;12.076;2023-03-25T11:11:51;95415.81;;;18.93;59.39
15229;BME280;7717;47.792;12.076;2023-03-25T11:14:22;95478.16;;;17.97;61.57
15229;BME280;7717;47.792;12.076;2023-03-25T11:16:52;95521.19;;;17.79;64.00
15229;BME280;7717;47.792;12.076;2023-03-25T11:19:40;95482.25;;;17.43;61.05
15229;BME280;7717;47.792;12.076;2023-03-25T11:22:11;95492.28;;;18.09;63.81
15229;BME280;7717;47.792;12.076;2023-03-25T11:24:46;95484.66;;;18.06;62.74
15229;BME280;7717;47.792;12.076;2023-03-25T11:27:24;95391.13;;;18.84;58.20
15229;BME280;7717;47.792;12.076;2023-03-25T11:30:03;95366.88;;;18.50;56.37
15229;BME280;7717;47.792;12.076;2023-03-25T11:32:37;95445.63;;;18.47;61.42
15229;BME280;7717;47.792;12.076;2023-03-25T11:35:28;95379.13;;;19.99;58.16
15229;BME280;7717;47.792;12.076;2023-03-25T11:37:57;95457.56;;;19.39;63.15
15229;BME280;7717;47.792;12.076;2023-03-25T11:40:23;95419.19;;;19.28;60.22
15229;BME280;7717;47.792;12.076;2023-03-25T11:42:54;95486.13;;;19.04;63.14
15229;BME280;7717;47.792;12.076;2023-03-25T11:45:21;95346.84;;;19.39;57.06
15229;BME280;7717;47.792;12.076;2023-03-25T11:47:48;95385.09;;;17.94;56.54
15229;BME280;7717;47.792;12.076;2023-03-25T11:50:20;95345.31;;;21.20;56.55
15229;BME280;7717;47.792;12.076;2023-03-25T11:52:46;95325.34;;;19.20;54.27
15229;BME280;7717;47.792;12.076;2023-03-25T11:55:40;95310.00;;;20.27;53.40
15229;BME280;7717;47.792;12.076;2023-03-25T11:58:16;95383.72;;;19.94;58.15
15229;BME280;7717;47.792;12.076;2023-03-25T12:00:51;95293.56;;;20.12;53.59
15229;BME280;7717;47.792;12.076;2023-03-25T12:03:28;95349.22;;;19.92;56.70
15229;BME280;7717;47.792;12.076;2023-03-25T12:06:04;95308.53;;;20.23;53.46
15229;BME280;7717;47.792;12.076;2023-03-25T12:08:42;95275.91;;;20.92;52.76
15229;BME280;7717;47.792;12.076;2023-03-25T12:11:13;95318.81;;;19.13;54.52
15229;BME280;7717;47.792;12.076;2023-03-25T12:16:53;95331.09;;;20.06;55.59
15229;BME280;7717;47.792;12.076;2023-03-25T12:19:34;95323.84;;;21.74;56.40
15229;BME280;7717;47.792;12.076;2023-03-25T12:25:03;95366.78;;;18.34;58.70
15229;BME280;7717;47.792;12.076;2023-03-25T12:28:35;95303.22;;;17.73;53.57
15229;BME280;7717;47.792;12.076;2023-03-25T12:31:07;95405.13;;;16.69;57.86
15229;BME280;7717;47.792;12.076;2023-03-25T12:39:43;95449.13;;;15.54;58.75
15229;BME280;7717;47.792;12.076;2023-03-25T12:45:23;95606.28;;;13.87;65.61
15229;BME280;7717;47.792;12.076;2023-03-25T12:50:26;95641.88;;;15.75;71.58
15229;BME280;7717;47.792;12.076;2023-03-25T12:53:58;95507.94;;;18.25;64.95
15229;BME280;7717;47.792;12.076;2023-03-25T13:07:02;95354.94;;;19.33;56.10
15229;BME280;7717;47.792;12.076;2023-03-25T13:15:14;95625.94;;;14.21;68.14
15229;BME280;7717;47.792;12.076;2023-03-25T13:20:24;95776.88;;;12.23;76.12
15229;BME280;7717;47.792;12.076;2023-03-25T13:22:55;95818.53;;;11.85;80.56
15229;BME280;7717;47.792;12.076;2023-03-25T13:25:34;95780.69;;;10.78;82.36
15229;BME280;7717;47.792;12.076;2023-03-25T13:28:31;95794.88;;;10.27;90.77
15229;BME280;7717;47.792;12.076;2023-03-25T13:31:05;95758.78;;;9.62;90.79
15229;BME280;7717;47.792;12.076;2023-03-25T13:33:35;95758.94;;;9.41;97.29
15229;BME280;7717;47.792;12.076;2023-03-25T13:39:30;95770.03;;;9.38;100.00
15229;BME280;7717;47.792;12.076;2023-03-25T13:42:09;95762.56;;;9.06;100.00
15229;BME280;7717;47.792;12.076;2023-03-25T13:44:39;95762.28;;;9.53;100.00
15229;BME280;7717;47.792;12.076;2023-03-25T13:47:36;95738.03;;;9.99;98.95
15229;BME280;7717;47.792;12.076;2023-03-25T13:50:07;95772.53;;;9.46;100.00
15229;BME280;7717;47.792;12.076;2023-03-25T13:52:41;95769.28;;;9.27;100.00
15229;BME280;7717;47.792;12.076;2023-03-25T13:55:19;95739.78;;;10.75;100.00
15229;BME280;7717;47.792;12.076;2023-03-25T13:58:16;95673.72;;;13.65;92.22
15229;BME280;7717;47.792;12.076;2023-03-25T14:00:55;95673.63;;;14.34;87.43
15229;BME280;7717;47.792;12.076;2023-03-25T14:06:34;95628.78;;;15.81;81.74
15229;BME280;7717;47.792;12.076;2023-03-25T14:11:46;95641.13;;;18.99;81.19
15229;BME280;7717;47.792;12.076;2023-03-25T14:14:17;95557.22;;;17.84;73.59
15229;BME280;7717;47.792;12.076;2023-03-25T14:16:49;95612.09;;;17.31;76.09
15229;BME280;7717;47.792;12.076;2023-03-25T14:19:28;95600.22;;;16.35;75.95
15229;BME280;7717;47.792;12.076;2023-03-25T14:21:55;95679.47;;;18.33;81.20
15229;BME280;7717;47.792;12.076;2023-03-25T14:24:34;95559.91;;;17.41;72.77
15229;BME280;7717;47.792;12.076;2023-03-25T14:27:23;95556.72;;;17.96;72.47
15229;BME280;7717;47.792;12.076;2023-03-25T14:30:04;95544.81;;;17.92;70.98
15229;BME280;7717;47.792;12.076;2023-03-25T14:32:37;95582.28;;;17.84;72.85
15229;BME280;7717;47.792;12.076;2023-03-25T14:43:02;95598.38;;;17.29;72.47
15229;BME280;7717;47.792;12.076;2023-03-25T14:47:56;95579.66;;;18.25;72.61
15229;BME280;7717;47.792;12.076;2023-03-25T14:52:49;95599.50;;;17.43;72.73
15229;BME280;7717;47.792;12.076;2023-03-25T14:55:25;95627.19;;;17.62;74.72
15229;BME280;7717;47.792;12.076;2023-03-25T14:57:57;95630.94;;;15.94;73.34
15229;BME280;7717;47.792;12.076;2023-03-25T15:00:26;95591.97;;;16.25;71.83
15229;BME280;7717;47.792;12.076;2023-03-25T15:03:12;95621.56;;;16.40;73.99
15229;BME280;7717;47.792;12.076;2023-03-25T15:05:41;95623.47;;;16.11;74.42
15229;BME280;7717;47.792;12.076;2023-03-25T15:08:24;95596.50;;;16.18;72.22
15229;BME280;7717;47.792;12.076;2023-03-25T15:11:09;95534.53;;;17.08;69.90
15229;BME280;7717;47.792;12.076;2023-03-25T15:13:48;95499.63;;;17.99;68.30
15229;BME280;7717;47.792;12.076;2023-03-25T15:16:36;95481.84;;;18.11;67.33